createdAt,value
2022-09-18T00:00:39.089Z,12.90
2022-09-18T00:01:42.389Z,12.90
2022-09-18T00:02:45.295Z,12.80
2022-09-18T00:03:47.640Z,12.80
2022-09-18T00:04:49.900Z,12.80
2022-09-18T00:05:51.823Z,12.80
2022-09-18T00:06:53.467Z,12.80
2022-09-18T00:07:55.081Z,12.80
2022-09-18T00:08:58.993Z,12.80
2022-09-18T00:10:00.602Z,12.80
2022-09-18T00:11:06.090Z,12.90
2022-09-18T00:12:07.842Z,12.80
2022-09-18T00:13:10.232Z,12.90
2022-09-18T00:14:19.738Z,12.80
2022-09-18T00:15:21.426Z,12.80
2022-09-18T00:16:24.555Z,12.80
2022-09-18T00:17:26.226Z,12.80
2022-09-18T00:18:28.998Z,12.80
2022-09-18T00:19:30.686Z,12.80
2022-09-18T00:20:37.026Z,13.00
2022-09-18T00:21:42.234Z,12.80
2022-09-18T00:22:44.332Z,12.80
2022-09-18T00:23:48.429Z,12.80
2022-09-18T00:24:50.110Z,12.70
2022-09-18T00:25:51.725Z,12.70
2022-09-18T00:26:53.583Z,12.70
2022-09-18T00:27:55.235Z,12.70
2022-09-18T00:28:58.382Z,12.70
2022-09-18T00:30:00.238Z,12.70
2022-09-18T00:31:11.536Z,12.70
2022-09-18T00:32:13.239Z,12.70
2022-09-18T00:33:14.873Z,12.70
2022-09-18T00:34:17.282Z,12.70
2022-09-18T00:35:19.331Z,12.80
2022-09-18T00:36:21.741Z,12.80
2022-09-18T00:37:23.387Z,12.80
2022-09-18T00:38:25.005Z,12.80
2022-09-18T00:39:26.762Z,12.80
2022-09-18T00:40:28.612Z,12.80
2022-09-18T00:41:33.137Z,12.70
2022-09-18T00:42:34.722Z,12.70
2022-09-18T00:43:37.551Z,12.60
2022-09-18T00:44:44.750Z,12.70
2022-09-18T00:45:55.969Z,12.70
2022-09-18T00:47:22.017Z,12.70
2022-09-18T00:48:27.983Z,12.70
2022-09-18T00:49:30.183Z,12.70
2022-09-18T00:50:32.056Z,12.70
2022-09-18T00:51:36.185Z,12.70
2022-09-18T00:52:54.380Z,12.70
2022-09-18T00:54:06.993Z,12.70
2022-09-18T00:55:11.500Z,12.80
2022-09-18T00:56:15.322Z,12.90
2022-09-18T00:57:21.854Z,12.80
2022-09-18T00:58:23.499Z,12.90
2022-09-18T00:59:30.642Z,12.90
2022-09-18T01:00:33.267Z,12.80
2022-09-18T01:01:34.934Z,12.80
2022-09-18T01:02:36.842Z,12.80
2022-09-18T01:03:38.673Z,12.80
2022-09-18T01:04:40.377Z,12.80
2022-09-18T01:05:54.282Z,12.70
2022-09-18T01:07:09.895Z,12.70
2022-09-18T01:08:38.512Z,12.70
2022-09-18T01:10:16.175Z,12.70
2022-09-18T01:11:46.798Z,12.70
2022-09-18T01:13:07.089Z,12.70
2022-09-18T01:14:29.522Z,12.70
2022-09-18T01:15:43.416Z,12.70
2022-09-18T01:17:11.403Z,12.70
2022-09-18T01:18:18.910Z,12.60
2022-09-18T01:19:50.030Z,12.60
2022-09-18T01:21:14.618Z,12.60
2022-09-18T01:22:16.225Z,12.70
2022-09-18T01:23:39.550Z,12.50
2022-09-18T01:25:08.205Z,12.40
2022-09-18T01:26:58.132Z,12.50
2022-09-18T01:28:11.423Z,12.50
2022-09-18T01:29:30.067Z,12.50
2022-09-18T01:30:33.514Z,12.50
2022-09-18T01:31:44.644Z,12.50
2022-09-18T01:33:02.670Z,12.50
2022-09-18T01:34:20.649Z,12.40
2022-09-18T01:35:41.050Z,12.40
2022-09-18T01:36:51.405Z,12.40
2022-09-18T01:38:04.240Z,12.40
2022-09-18T01:39:08.447Z,12.50
2022-09-18T01:40:28.030Z,12.50
2022-09-18T01:41:30.467Z,12.50
2022-09-18T01:42:34.367Z,12.50
2022-09-18T01:43:38.043Z,12.40
2022-09-18T01:44:42.643Z,12.50
2022-09-18T01:45:48.026Z,12.40
2022-09-18T01:46:51.162Z,12.50
2022-09-18T01:48:04.423Z,12.50
2022-09-18T01:49:09.662Z,12.50
2022-09-18T01:50:12.898Z,12.50
2022-09-18T01:51:20.485Z,12.60
2022-09-18T01:52:31.467Z,12.60
2022-09-18T01:53:43.631Z,12.60
2022-09-18T01:54:49.129Z,12.60
2022-09-18T01:55:59.249Z,12.60
2022-09-18T01:57:27.500Z,12.60
2022-09-18T01:58:32.575Z,12.60
2022-09-18T01:59:43.556Z,12.60
2022-09-18T02:00:51.582Z,12.60
2022-09-18T02:01:56.468Z,12.60
2022-09-18T02:03:08.889Z,12.60
2022-09-18T02:04:19.028Z,12.60
2022-09-18T02:05:26.658Z,12.60
2022-09-18T02:06:51.593Z,12.60
2022-09-18T02:08:16.096Z,12.60
2022-09-18T02:09:17.752Z,12.60
2022-09-18T02:10:22.051Z,12.60
2022-09-18T02:11:24.263Z,12.60
2022-09-18T02:12:28.916Z,12.60
2022-09-18T02:13:40.895Z,12.60
2022-09-18T02:14:47.023Z,12.60
2022-09-18T02:15:49.562Z,12.60
2022-09-18T02:16:57.462Z,12.60
2022-09-18T02:18:01.311Z,12.60
2022-09-18T02:19:13.443Z,12.70
2022-09-18T02:20:20.868Z,12.60
2022-09-18T02:21:27.523Z,12.60
2022-09-18T02:22:34.029Z,12.60
2022-09-18T02:23:38.094Z,12.40
2022-09-18T02:24:42.744Z,12.60
2022-09-18T02:25:57.715Z,12.60
2022-09-18T02:27:01.317Z,12.60
2022-09-18T02:28:05.362Z,12.60
2022-09-18T02:29:10.189Z,12.60
2022-09-18T02:30:12.473Z,12.60
2022-09-18T02:31:16.719Z,12.60
2022-09-18T02:32:18.876Z,12.60
2022-09-18T02:33:33.682Z,12.60
2022-09-18T02:34:35.770Z,12.60
2022-09-18T02:35:45.736Z,12.60
2022-09-18T02:36:59.496Z,12.60
2022-09-18T02:38:12.040Z,12.60
2022-09-18T02:39:27.533Z,12.60
2022-09-18T02:40:47.995Z,12.60
2022-09-18T02:42:08.979Z,12.60
2022-09-18T02:43:42.564Z,12.60
2022-09-18T02:44:56.481Z,12.60
2022-09-18T02:46:23.079Z,12.60
2022-09-18T02:47:30.249Z,12.60
2022-09-18T02:48:40.822Z,12.60
2022-09-18T02:50:16.822Z,12.60
2022-09-18T02:51:44.902Z,12.60
2022-09-18T02:53:04.983Z,12.60
2022-09-18T02:54:27.042Z,12.50
2022-09-18T02:55:52.246Z,12.50
2022-09-18T02:57:03.012Z,12.50
2022-09-18T02:58:21.151Z,12.50
2022-09-18T02:59:37.125Z,12.50
2022-09-18T03:00:44.399Z,12.50
2022-09-18T03:01:46.625Z,12.50
2022-09-18T03:02:50.721Z,12.50
2022-09-18T03:03:53.068Z,12.50
2022-09-18T03:04:55.074Z,12.50
2022-09-18T03:05:57.430Z,12.50
2022-09-18T03:06:59.569Z,12.60
2022-09-18T03:08:02.854Z,12.50
2022-09-18T03:09:04.640Z,12.50
2022-09-18T03:10:06.863Z,12.60
2022-09-18T03:11:09.286Z,12.60
2022-09-18T03:12:11.731Z,12.50
2022-09-18T03:13:13.445Z,12.60
2022-09-18T03:14:15.184Z,12.60
2022-09-18T03:15:17.128Z,12.60
2022-09-18T03:16:18.965Z,12.50
2022-09-18T03:17:20.811Z,12.50
2022-09-18T03:18:22.963Z,12.50
2022-09-18T03:19:24.778Z,12.60
2022-09-18T03:20:26.459Z,12.50
2022-09-18T03:21:28.456Z,12.50
2022-09-18T03:22:30.119Z,12.50
2022-09-18T03:23:31.758Z,12.50
2022-09-18T03:24:33.492Z,12.50
2022-09-18T03:25:35.435Z,12.50
2022-09-18T03:26:37.957Z,12.50
2022-09-18T03:27:39.669Z,12.60
2022-09-18T03:28:41.432Z,12.60
2022-09-18T03:29:43.108Z,12.60
2022-09-18T03:30:46.017Z,12.60
2022-09-18T03:31:47.881Z,12.60
2022-09-18T03:32:50.807Z,12.60
2022-09-18T03:33:52.974Z,12.60
2022-09-18T03:34:55.544Z,12.60
2022-09-18T03:35:57.437Z,12.60
2022-09-18T03:36:59.127Z,12.60
2022-09-18T03:38:00.732Z,12.60
2022-09-18T03:39:02.510Z,12.60
2022-09-18T03:40:04.695Z,12.60
2022-09-18T03:41:07.223Z,12.60
2022-09-18T03:42:09.067Z,12.60
2022-09-18T03:43:12.307Z,12.60
2022-09-18T03:44:14.452Z,12.60
2022-09-18T03:45:16.663Z,12.60
2022-09-18T03:46:22.522Z,12.60
2022-09-18T03:47:26.534Z,12.60
2022-09-18T03:48:28.431Z,12.60
2022-09-18T03:49:30.266Z,12.60
2022-09-18T03:50:31.925Z,12.60
2022-09-18T03:51:33.763Z,12.60
2022-09-18T03:52:39.129Z,12.60
2022-09-18T03:53:40.741Z,12.60
2022-09-18T03:54:42.391Z,12.60
2022-09-18T03:55:44.133Z,12.60
2022-09-18T03:56:45.790Z,12.60
2022-09-18T03:57:47.805Z,12.50
2022-09-18T03:58:49.493Z,12.50
2022-09-18T03:59:51.589Z,12.50
2022-09-18T04:00:53.404Z,12.60
2022-09-18T04:01:55.181Z,12.60
2022-09-18T04:02:56.974Z,12.60
2022-09-18T04:03:58.818Z,12.60
2022-09-18T04:05:00.485Z,12.60
2022-09-18T04:06:02.940Z,12.50
2022-09-18T04:07:04.806Z,12.70
2022-09-18T04:08:06.721Z,12.70
2022-09-18T04:09:08.634Z,12.70
2022-09-18T04:10:10.487Z,12.70
2022-09-18T04:11:12.302Z,12.70
2022-09-18T04:12:14.149Z,12.70
2022-09-18T04:13:16.490Z,12.60
2022-09-18T04:14:18.363Z,12.60
2022-09-18T04:15:20.412Z,12.70
2022-09-18T04:16:22.202Z,12.70
2022-09-18T04:17:23.957Z,12.70
2022-09-18T04:18:25.935Z,12.70
2022-09-18T04:19:27.701Z,12.70
2022-09-18T04:20:29.393Z,12.70
2022-09-18T04:21:32.268Z,12.70
2022-09-18T04:22:34.103Z,12.70
2022-09-18T04:23:35.857Z,12.70
2022-09-18T04:24:39.571Z,12.70
2022-09-18T04:25:42.260Z,12.70
2022-09-18T04:26:43.909Z,12.70
2022-09-18T04:27:46.051Z,12.70
2022-09-18T04:28:48.052Z,12.70
2022-09-18T04:29:50.066Z,12.70
2022-09-18T04:30:51.819Z,12.70
2022-09-18T04:31:53.610Z,12.70
2022-09-18T04:32:55.399Z,12.70
2022-09-18T04:33:57.112Z,12.70
2022-09-18T04:34:58.894Z,12.70
2022-09-18T04:36:00.760Z,12.60
2022-09-18T04:37:04.833Z,12.70
2022-09-18T04:38:09.412Z,12.70
2022-09-18T04:39:11.355Z,12.70
2022-09-18T04:40:13.376Z,12.70
2022-09-18T04:41:15.205Z,12.70
2022-09-18T04:42:16.962Z,12.70
2022-09-18T04:43:20.325Z,12.70
2022-09-18T04:44:22.110Z,12.70
2022-09-18T04:45:23.814Z,12.70
2022-09-18T04:46:26.843Z,12.60
2022-09-18T04:47:28.929Z,12.60
2022-09-18T04:48:30.633Z,12.60
2022-09-18T04:49:33.592Z,12.60
2022-09-18T04:50:35.187Z,12.60
2022-09-18T04:51:36.830Z,12.60
2022-09-18T04:52:38.537Z,12.60
2022-09-18T04:53:40.567Z,12.50
2022-09-18T04:54:42.282Z,12.60
2022-09-18T04:55:47.362Z,12.50
2022-09-18T04:56:49.360Z,12.50
2022-09-18T04:57:54.373Z,12.60
2022-09-18T04:58:56.719Z,12.50
2022-09-18T04:59:58.515Z,12.50
2022-09-18T05:01:00.281Z,12.60
2022-09-18T05:02:02.224Z,12.60
2022-09-18T05:03:05.382Z,12.60
2022-09-18T05:04:07.346Z,12.60
2022-09-18T05:05:09.315Z,12.60
2022-09-18T05:06:10.956Z,12.60
2022-09-18T05:07:12.608Z,12.60
2022-09-18T05:08:14.418Z,12.60
2022-09-18T05:09:16.072Z,12.60
2022-09-18T05:10:17.697Z,12.70
2022-09-18T05:11:19.510Z,12.70
2022-09-18T05:12:21.243Z,12.70
2022-09-18T05:13:24.041Z,12.70
2022-09-18T05:14:26.048Z,12.70
2022-09-18T05:15:27.971Z,12.80
2022-09-18T05:16:29.713Z,12.70
2022-09-18T05:17:32.762Z,12.70
2022-09-18T05:18:34.381Z,12.70
2022-09-18T05:19:36.197Z,12.70
2022-09-18T05:20:37.938Z,12.60
2022-09-18T05:21:39.658Z,12.70
2022-09-18T05:22:48.120Z,12.70
2022-09-18T05:23:49.787Z,12.70
2022-09-18T05:24:51.485Z,12.70
2022-09-18T05:25:53.145Z,12.70
2022-09-18T05:26:54.807Z,12.70
2022-09-18T05:27:58.857Z,12.70
2022-09-18T05:29:00.635Z,12.70
2022-09-18T05:30:02.623Z,12.70
2022-09-18T05:31:04.760Z,12.70
2022-09-18T05:32:07.586Z,12.80
2022-09-18T05:33:10.979Z,12.70
2022-09-18T05:34:12.620Z,12.80
2022-09-18T05:35:14.422Z,12.80
2022-09-18T05:36:16.405Z,12.80
2022-09-18T05:37:18.654Z,12.80
2022-09-18T05:38:20.500Z,12.80
2022-09-18T05:39:22.221Z,12.70
2022-09-18T05:40:26.477Z,12.70
2022-09-18T05:41:28.191Z,12.70
2022-09-18T05:42:29.833Z,12.80
2022-09-18T05:43:31.587Z,12.70
2022-09-18T05:44:33.293Z,12.70
2022-09-18T05:45:35.315Z,12.80
2022-09-18T05:46:37.220Z,12.80
2022-09-18T05:47:38.969Z,12.80
2022-09-18T05:48:41.352Z,12.80
2022-09-18T05:49:43.367Z,12.80
2022-09-18T05:50:45.529Z,12.70
2022-09-18T05:51:47.189Z,12.70
2022-09-18T05:52:57.895Z,12.70
2022-09-18T05:53:59.767Z,12.70
2022-09-18T05:55:01.839Z,12.70
2022-09-18T05:56:03.851Z,12.70
2022-09-18T05:57:05.638Z,12.70
2022-09-18T05:58:12.059Z,12.70
2022-09-18T05:59:14.433Z,12.70
2022-09-18T06:00:16.476Z,12.70
2022-09-18T06:01:18.316Z,12.70
2022-09-18T06:02:20.068Z,12.70
2022-09-18T06:03:21.993Z,12.70
2022-09-18T06:04:24.015Z,12.70
2022-09-18T06:05:26.574Z,12.70
2022-09-18T06:06:29.186Z,12.70
2022-09-18T06:07:31.629Z,12.70
2022-09-18T06:08:33.355Z,12.70
2022-09-18T06:09:35.042Z,12.70
2022-09-18T06:10:39.423Z,12.70
2022-09-18T06:11:41.087Z,12.70
2022-09-18T06:12:42.787Z,12.70
2022-09-18T06:13:44.688Z,12.70
2022-09-18T06:14:46.340Z,12.90
2022-09-18T06:15:50.431Z,12.70
2022-09-18T06:16:52.189Z,12.70
2022-09-18T06:17:53.812Z,12.70
2022-09-18T06:18:55.531Z,12.70
2022-09-18T06:19:57.445Z,12.70
2022-09-18T06:20:59.414Z,12.70
2022-09-18T06:22:01.215Z,12.70
2022-09-18T06:23:04.207Z,12.70
2022-09-18T06:24:06.230Z,12.70
2022-09-18T06:25:08.370Z,12.70
2022-09-18T06:26:14.779Z,12.70
2022-09-18T06:27:16.876Z,12.70
2022-09-18T06:28:18.512Z,12.70
2022-09-18T06:29:20.854Z,12.70
2022-09-18T06:30:22.653Z,12.70
2022-09-18T06:31:24.343Z,12.70
2022-09-18T06:32:26.006Z,12.70
2022-09-18T06:33:29.386Z,12.70
2022-09-18T06:34:32.748Z,12.70
2022-09-18T06:35:38.670Z,12.70
2022-09-18T06:36:40.586Z,12.70
2022-09-18T06:37:42.231Z,12.80
2022-09-18T06:38:44.047Z,12.80
2022-09-18T06:39:45.970Z,12.80
2022-09-18T06:40:49.943Z,12.80
2022-09-18T06:41:51.779Z,12.80
2022-09-18T06:42:57.831Z,12.90
2022-09-18T06:44:00.522Z,12.80
2022-09-18T06:45:02.146Z,12.90
2022-09-18T06:46:04.711Z,12.80
2022-09-18T06:47:07.225Z,12.90
2022-09-18T06:48:08.882Z,12.90
2022-09-18T06:49:10.599Z,12.90
2022-09-18T06:50:12.848Z,12.90
2022-09-18T06:51:14.640Z,12.90
2022-09-18T06:52:16.268Z,13.00
2022-09-18T06:53:17.900Z,13.00
2022-09-18T06:54:19.760Z,13.00
2022-09-18T06:55:21.456Z,13.00
2022-09-18T06:56:23.085Z,13.00
2022-09-18T06:57:25.123Z,13.00
2022-09-18T06:58:26.768Z,13.00
2022-09-18T06:59:28.469Z,13.00
2022-09-18T07:00:30.289Z,13.10
2022-09-18T07:01:32.105Z,13.10
2022-09-18T07:02:34.010Z,13.10
2022-09-18T07:03:35.745Z,13.10
2022-09-18T07:04:37.787Z,13.10
2022-09-18T07:05:42.806Z,13.10
2022-09-18T07:06:48.335Z,13.10
2022-09-18T07:07:50.002Z,13.00
2022-09-18T07:08:51.810Z,13.00
2022-09-18T07:09:53.728Z,13.00
2022-09-18T07:11:01.151Z,13.00
2022-09-18T07:12:03.212Z,12.90
2022-09-18T07:13:05.325Z,13.00
2022-09-18T07:14:08.519Z,13.00
2022-09-18T07:15:10.551Z,13.00
2022-09-18T07:16:12.346Z,12.90
2022-09-18T07:17:18.240Z,13.00
2022-09-18T07:18:21.032Z,12.90
2022-09-18T07:19:25.128Z,12.90
2022-09-18T07:20:29.435Z,13.00
2022-09-18T07:21:31.087Z,13.00
2022-09-18T07:22:32.734Z,13.00
2022-09-18T07:23:35.716Z,13.00
2022-09-18T07:24:37.378Z,13.00
2022-09-18T07:25:39.172Z,13.00
2022-09-18T07:26:40.831Z,13.00
2022-09-18T07:27:42.415Z,13.10
2022-09-18T07:28:44.115Z,13.10
2022-09-18T07:29:45.826Z,13.10
2022-09-18T07:30:47.646Z,13.10
2022-09-18T07:31:49.523Z,13.10
2022-09-18T07:32:51.417Z,13.10
2022-09-18T07:33:54.583Z,13.10
2022-09-18T07:34:56.521Z,13.10
2022-09-18T07:36:02.067Z,13.10
2022-09-18T07:37:03.893Z,13.10
2022-09-18T07:38:07.258Z,13.30
2022-09-18T07:39:09.699Z,13.10
2022-09-18T07:40:12.829Z,13.10
2022-09-18T07:41:14.698Z,13.10
2022-09-18T07:42:16.342Z,13.10
2022-09-18T07:43:18.036Z,13.20
2022-09-18T07:44:19.693Z,13.20
2022-09-18T07:45:21.347Z,13.20
2022-09-18T07:46:23.160Z,13.20
2022-09-18T07:47:25.291Z,13.20
2022-09-18T07:48:27.691Z,13.20
2022-09-18T07:49:29.486Z,13.20
2022-09-18T07:50:31.967Z,13.20
2022-09-18T07:51:33.570Z,13.30
2022-09-18T07:52:35.329Z,13.30
2022-09-18T07:53:37.638Z,13.30
2022-09-18T07:54:39.276Z,13.30
2022-09-18T07:55:45.278Z,13.30
2022-09-18T07:56:47.265Z,13.30
2022-09-18T07:57:55.243Z,13.30
2022-09-18T07:58:56.907Z,13.30
2022-09-18T07:59:58.524Z,13.40
2022-09-18T08:01:02.692Z,13.30
2022-09-18T08:02:06.002Z,13.30
2022-09-18T08:03:18.599Z,13.40
2022-09-18T08:04:20.464Z,13.30
2022-09-18T08:05:22.255Z,13.30
2022-09-18T08:06:23.994Z,13.30
2022-09-18T08:07:25.966Z,13.30
2022-09-18T08:08:27.841Z,13.30
2022-09-18T08:09:29.985Z,13.30
2022-09-18T08:10:33.009Z,13.30
2022-09-18T08:11:34.648Z,13.30
2022-09-18T08:12:36.455Z,13.30
2022-09-18T08:13:38.374Z,13.30
2022-09-18T08:14:40.037Z,13.30
2022-09-18T08:15:42.709Z,13.30
2022-09-18T08:16:44.926Z,13.30
2022-09-18T08:17:47.114Z,13.30
2022-09-18T08:18:49.307Z,13.20
2022-09-18T08:19:51.439Z,13.20
2022-09-18T08:20:56.604Z,13.20
2022-09-18T08:21:58.287Z,13.30
2022-09-18T08:23:02.052Z,13.30
2022-09-18T08:24:03.951Z,13.30
2022-09-18T08:25:07.048Z,13.30
2022-09-18T08:26:08.810Z,13.20
2022-09-18T08:27:10.633Z,13.20
2022-09-18T08:28:12.363Z,13.30
2022-09-18T08:29:23.937Z,13.20
2022-09-18T08:30:25.963Z,13.30
2022-09-18T08:31:27.753Z,13.20
2022-09-18T08:32:29.541Z,13.20
2022-09-18T08:33:31.299Z,13.30
2022-09-18T08:34:34.198Z,13.20
2022-09-18T08:35:36.452Z,13.20
2022-09-18T08:36:38.119Z,13.20
2022-09-18T08:37:47.774Z,13.30
2022-09-18T08:38:52.215Z,13.20
2022-09-18T08:39:53.931Z,13.30
2022-09-18T08:41:14.999Z,13.30
2022-09-18T08:42:40.644Z,13.20
2022-09-18T08:44:05.403Z,13.30
2022-09-18T08:45:27.832Z,13.30
2022-09-18T08:46:51.143Z,13.30
2022-09-18T08:48:13.075Z,13.30
2022-09-18T08:49:41.165Z,13.30
2022-09-18T08:50:47.155Z,13.40
2022-09-18T08:51:59.787Z,13.40
2022-09-18T08:53:18.884Z,13.40
2022-09-18T08:54:46.982Z,13.50
2022-09-18T08:55:51.636Z,13.50
2022-09-18T08:56:56.788Z,13.50
2022-09-18T08:58:17.032Z,13.50
2022-09-18T08:59:23.961Z,13.50
2022-09-18T09:00:42.122Z,13.40
2022-09-18T09:02:22.945Z,13.40
2022-09-18T09:03:41.625Z,13.50
2022-09-18T09:04:45.282Z,13.50
2022-09-18T09:05:53.285Z,13.50
2022-09-18T09:07:01.401Z,13.40
2022-09-18T09:08:17.909Z,13.50
2022-09-18T09:09:47.741Z,13.30
2022-09-18T09:10:58.362Z,13.40
2022-09-18T09:12:05.160Z,13.40
2022-09-18T09:13:25.930Z,13.40
2022-09-18T09:14:57.198Z,13.40
2022-09-18T09:16:06.778Z,13.40
2022-09-18T09:17:34.114Z,13.40
2022-09-18T09:19:04.221Z,13.50
2022-09-18T09:20:19.073Z,13.50
2022-09-18T09:21:32.723Z,13.60
2022-09-18T09:22:55.526Z,13.50
2022-09-18T09:24:26.006Z,13.60
2022-09-18T09:25:41.102Z,13.50
2022-09-18T09:26:43.751Z,13.60
2022-09-18T09:28:08.275Z,13.60
2022-09-18T09:29:18.082Z,13.60
2022-09-18T09:30:20.967Z,13.60
2022-09-18T09:31:32.868Z,13.70
2022-09-18T09:32:40.085Z,13.60
2022-09-18T09:34:16.868Z,13.60
2022-09-18T09:35:37.685Z,13.60
2022-09-18T09:36:42.168Z,13.70
2022-09-18T09:37:46.996Z,13.70
2022-09-18T09:38:50.487Z,13.70
2022-09-18T09:39:58.513Z,13.70
2022-09-18T09:41:25.493Z,13.70
2022-09-18T09:42:42.030Z,13.80
2022-09-18T09:44:18.914Z,13.80
2022-09-18T09:45:29.590Z,13.80
2022-09-18T09:47:14.553Z,13.90
2022-09-18T09:48:41.067Z,13.90
2022-09-18T09:50:06.799Z,13.90
2022-09-18T09:51:29.511Z,13.90
2022-09-18T09:52:31.839Z,13.90
2022-09-18T09:53:33.783Z,13.90
2022-09-18T09:54:35.460Z,13.90
2022-09-18T09:55:43.903Z,14.00
2022-09-18T09:56:51.512Z,14.00
2022-09-18T09:58:23.204Z,14.00
2022-09-18T09:59:47.785Z,14.00
2022-09-18T10:01:08.530Z,14.10
2022-09-18T10:02:25.908Z,14.10
2022-09-18T10:03:46.283Z,14.10
2022-09-18T10:05:02.809Z,14.10
2022-09-18T10:06:28.023Z,14.10
2022-09-18T10:07:48.640Z,14.00
2022-09-18T10:08:54.672Z,14.10
2022-09-18T10:09:56.357Z,14.00
2022-09-18T10:11:02.385Z,14.10
2022-09-18T10:12:09.346Z,14.10
2022-09-18T10:13:23.335Z,14.20
2022-09-18T10:14:30.374Z,14.20
2022-09-18T10:15:40.398Z,14.30
2022-09-18T10:16:46.779Z,14.30
2022-09-18T10:17:51.304Z,14.30
2022-09-18T10:18:52.988Z,14.40
2022-09-18T10:19:54.700Z,14.40
2022-09-18T10:21:02.170Z,14.40
2022-09-18T10:22:07.661Z,14.40
2022-09-18T10:23:25.741Z,14.50
2022-09-18T10:24:48.790Z,14.50
2022-09-18T10:25:56.871Z,14.60
2022-09-18T10:27:02.433Z,14.70
2022-09-18T10:28:04.139Z,14.70
2022-09-18T10:29:06.779Z,14.80
2022-09-18T10:30:13.051Z,14.90
2022-09-18T10:31:17.592Z,14.90
2022-09-18T10:32:37.834Z,15.10
2022-09-18T10:34:25.766Z,15.00
2022-09-18T10:35:30.180Z,15.00
2022-09-18T10:36:37.761Z,15.00
2022-09-18T10:37:43.512Z,15.00
2022-09-18T10:38:46.149Z,15.00
2022-09-18T10:39:52.813Z,15.10
2022-09-18T10:40:54.680Z,15.10
2022-09-18T10:42:06.752Z,15.10
2022-09-18T10:43:20.920Z,15.10
2022-09-18T10:44:33.954Z,15.20
2022-09-18T10:45:41.787Z,15.20
2022-09-18T10:46:57.786Z,15.20
2022-09-18T10:48:06.696Z,15.20
2022-09-18T10:49:32.966Z,15.20
2022-09-18T10:50:35.071Z,15.20
2022-09-18T10:51:36.738Z,15.20
2022-09-18T10:52:46.507Z,15.20
2022-09-18T10:54:17.716Z,15.30
2022-09-18T10:55:25.186Z,15.30
2022-09-18T10:56:27.050Z,15.40
2022-09-18T10:57:36.490Z,15.40
2022-09-18T10:58:38.309Z,15.40
2022-09-18T10:59:39.985Z,15.50
2022-09-18T11:01:06.219Z,15.60
2022-09-18T11:02:19.286Z,15.60
2022-09-18T11:03:37.814Z,15.60
2022-09-18T11:04:40.074Z,15.60
2022-09-18T11:05:54.905Z,15.60
2022-09-18T11:06:59.016Z,15.60
2022-09-18T11:08:06.519Z,15.60
2022-09-18T11:09:11.037Z,15.60
2022-09-18T11:10:17.601Z,15.70
2022-09-18T11:11:30.478Z,15.60
2022-09-18T11:12:32.283Z,15.60
2022-09-18T11:13:58.293Z,15.60
2022-09-18T11:15:07.664Z,15.60
2022-09-18T11:16:09.500Z,15.60
2022-09-18T11:17:27.306Z,15.60
2022-09-18T11:18:32.172Z,15.70
2022-09-18T11:19:39.050Z,15.70
2022-09-18T11:20:43.573Z,15.80
2022-09-18T11:21:55.236Z,15.80
2022-09-18T11:23:24.510Z,15.90
2022-09-18T11:24:28.743Z,15.90
2022-09-18T11:25:30.429Z,15.90
2022-09-18T11:26:32.836Z,15.90
2022-09-18T11:27:46.766Z,15.90
2022-09-18T11:29:19.529Z,16.00
2022-09-18T11:30:28.045Z,16.10
2022-09-18T11:32:18.040Z,16.20
2022-09-18T11:33:27.674Z,16.20
2022-09-18T11:34:37.756Z,16.30
2022-09-18T11:35:46.174Z,16.30
2022-09-18T11:36:52.065Z,16.30
2022-09-18T11:37:57.665Z,16.30
2022-09-18T11:39:01.427Z,16.30
2022-09-18T11:40:15.000Z,16.40
2022-09-18T11:41:31.735Z,16.50
2022-09-18T11:42:33.729Z,16.50
2022-09-18T11:43:38.328Z,16.60
2022-09-18T11:44:40.651Z,16.60
2022-09-18T11:45:56.024Z,16.60
2022-09-18T11:47:16.353Z,16.70
2022-09-18T11:48:40.835Z,16.70
2022-09-18T11:49:47.902Z,16.80
2022-09-18T11:50:54.304Z,16.90
2022-09-18T11:52:01.366Z,16.90
2022-09-18T11:53:30.454Z,16.90
2022-09-18T11:54:55.092Z,16.90
2022-09-18T11:56:06.286Z,16.80
2022-09-18T11:57:21.620Z,16.70
2022-09-18T11:58:53.711Z,16.60
2022-09-18T12:00:00.300Z,16.60
2022-09-18T12:01:35.693Z,16.60
2022-09-18T12:02:45.024Z,16.40
2022-09-18T12:04:00.752Z,16.40
2022-09-18T12:05:28.281Z,16.20
2022-09-18T12:06:58.834Z,16.20
2022-09-18T12:08:37.023Z,16.30
2022-09-18T12:10:15.413Z,16.30
2022-09-18T12:11:39.144Z,16.30
2022-09-18T12:12:49.525Z,16.30
2022-09-18T12:14:46.336Z,16.40
2022-09-18T12:16:09.038Z,16.30
2022-09-18T12:17:26.975Z,16.40
2022-09-18T12:18:35.204Z,16.40
2022-09-18T12:19:38.477Z,16.40
2022-09-18T12:20:48.694Z,16.50
2022-09-18T12:22:04.239Z,16.50
2022-09-18T12:23:13.962Z,16.60
2022-09-18T12:24:17.526Z,16.70
2022-09-18T12:25:32.578Z,16.80
2022-09-18T12:26:58.762Z,16.80
2022-09-18T12:28:33.418Z,16.90
2022-09-18T12:30:03.599Z,16.70
2022-09-18T12:31:15.767Z,16.70
2022-09-18T12:32:33.276Z,16.70
2022-09-18T12:33:58.243Z,16.70
2022-09-18T12:35:24.265Z,16.60
2022-09-18T12:36:51.134Z,16.60
2022-09-18T12:38:11.442Z,16.60
2022-09-18T12:39:44.523Z,16.60
2022-09-18T12:41:21.179Z,16.70
2022-09-18T12:42:44.822Z,16.80
2022-09-18T12:44:07.943Z,16.90
2022-09-18T12:46:04.582Z,16.80
2022-09-18T12:47:35.108Z,16.90
2022-09-18T12:48:52.654Z,16.90
2022-09-18T12:50:31.341Z,16.80
2022-09-18T12:51:43.584Z,16.80
2022-09-18T12:53:24.511Z,16.80
2022-09-18T12:54:49.380Z,16.80
2022-09-18T12:56:09.444Z,16.80
2022-09-18T12:57:14.550Z,16.80
2022-09-18T12:58:59.763Z,16.80
2022-09-18T13:00:13.892Z,16.80
2022-09-18T13:01:33.408Z,16.80
2022-09-18T13:02:41.124Z,16.80
2022-09-18T13:03:45.352Z,16.80
2022-09-18T13:05:20.973Z,17.00
2022-09-18T13:06:56.359Z,16.80
2022-09-18T13:08:05.405Z,16.90
2022-09-18T13:09:36.876Z,16.70
2022-09-18T13:10:42.811Z,16.80
2022-09-18T13:11:53.462Z,16.80
2022-09-18T13:13:00.285Z,16.70
2022-09-18T13:14:16.829Z,16.70
2022-09-18T13:15:21.882Z,16.60
2022-09-18T13:16:36.869Z,16.70
2022-09-18T13:17:45.933Z,16.60
2022-09-18T13:19:01.679Z,16.60
2022-09-18T13:20:16.786Z,16.60
2022-09-18T13:21:27.439Z,16.60
2022-09-18T13:22:34.767Z,16.60
2022-09-18T13:23:41.765Z,16.60
2022-09-18T13:24:46.383Z,16.60
2022-09-18T13:25:51.643Z,16.60
2022-09-18T13:26:55.220Z,16.60
2022-09-18T13:27:58.241Z,16.60
2022-09-18T13:29:03.200Z,16.60
2022-09-18T13:30:27.818Z,16.60
2022-09-18T13:31:35.098Z,16.60
2022-09-18T13:32:40.128Z,16.60
2022-09-18T13:33:53.391Z,16.60
2022-09-18T13:35:01.792Z,16.60
2022-09-18T13:36:03.632Z,16.60
2022-09-18T13:37:16.884Z,16.50
2022-09-18T13:38:20.588Z,16.40
2022-09-18T13:39:27.134Z,16.40
2022-09-18T13:40:50.213Z,16.40
2022-09-18T13:41:54.790Z,16.40
2022-09-18T13:42:58.121Z,16.30
2022-09-18T13:44:02.058Z,16.30
2022-09-18T13:45:19.406Z,16.40
2022-09-18T13:46:35.006Z,16.30
2022-09-18T13:48:06.654Z,16.40
2022-09-18T13:49:34.568Z,16.40
2022-09-18T13:50:37.824Z,16.40
2022-09-18T13:51:41.026Z,16.40
2022-09-18T13:52:55.861Z,16.50
2022-09-18T13:54:12.661Z,16.40
2022-09-18T13:55:46.774Z,16.50
2022-09-18T13:57:03.895Z,16.40
2022-09-18T13:58:30.891Z,16.40
2022-09-18T14:00:09.953Z,16.40
2022-09-18T14:01:40.763Z,16.40
2022-09-18T14:02:42.560Z,16.30
2022-09-18T14:03:44.555Z,16.30
2022-09-18T14:04:49.677Z,16.30
2022-09-18T14:05:51.902Z,16.20
2022-09-18T14:06:54.889Z,16.20
2022-09-18T14:08:18.233Z,16.20
2022-09-18T14:09:44.607Z,16.10
2022-09-18T14:11:16.824Z,16.10
2022-09-18T14:12:19.570Z,16.00
2022-09-18T14:13:24.764Z,16.20
2022-09-18T14:14:26.449Z,16.00
2022-09-18T14:15:30.662Z,16.00
2022-09-18T14:16:40.650Z,16.10
2022-09-18T14:17:42.737Z,16.20
2022-09-18T14:18:44.308Z,16.20
2022-09-18T14:19:50.184Z,16.20
2022-09-18T14:20:56.332Z,16.20
2022-09-18T14:21:58.900Z,16.30
2022-09-18T14:23:35.439Z,16.40
2022-09-18T14:24:56.174Z,16.40
2022-09-18T14:25:57.832Z,16.60
2022-09-18T14:27:41.301Z,16.60
2022-09-18T14:28:47.423Z,16.60
2022-09-18T14:29:54.017Z,16.50
2022-09-18T14:31:27.340Z,16.70
2022-09-18T14:32:29.469Z,16.40
2022-09-18T14:33:34.754Z,16.40
2022-09-18T14:34:42.447Z,16.40
2022-09-18T14:35:55.187Z,16.40
2022-09-18T14:37:00.782Z,16.40
2022-09-18T14:38:02.831Z,16.40
2022-09-18T14:39:26.138Z,16.50
2022-09-18T14:40:28.127Z,16.50
2022-09-18T14:41:35.576Z,16.50
2022-09-18T14:42:41.260Z,16.60